Fairmont, Louisiana
Current Conditions -  °F | °C
As of 10:53 AM on Wednesday 26 Nov 2014 (Local Time) from KAEX Reporting Station
Clear Clear  
Wind Chill: 63°   Ceiling: Unl
Heat Index: 63°   Visibility: 10mi
Dew Point: 42°   Wind: 20mph
Humidity: 46%   Direction: 240°WSW
Pressure: 30.19"   Gusts: 25mph
Location:  31.503°N, 92.6476°W
Report Text: KAEX 261653Z 24017G22KT 10SM CLR 17/06 A3019 RMK AO2 PK WND 24030/1634 SLP226 T01720056
Loading
Personal Weather Stations






























Interactive Weather Map New forecast layout! Learn more

10-Day Weather Forecast

Advertisements
Track Severe Weather on mobile